createdAt,value
2022-11-18T00:02:05.339Z,3.07
2022-11-18T00:05:26.951Z,3.06
2022-11-18T00:08:49.856Z,3.06
2022-11-18T00:12:30.051Z,3.10
2022-11-18T00:16:01.493Z,3.11
2022-11-18T00:19:25.543Z,3.08
2022-11-18T00:22:47.559Z,3.04
2022-11-18T00:26:12.326Z,3.01
2022-11-18T00:29:34.015Z,3.00
2022-11-18T00:32:55.858Z,2.98
2022-11-18T00:36:17.270Z,2.97
2022-11-18T00:39:39.053Z,2.98
2022-11-18T00:43:01.717Z,2.95
2022-11-18T00:46:23.248Z,2.99
2022-11-18T00:49:45.247Z,3.00
2022-11-18T00:53:07.127Z,2.99
2022-11-18T00:56:29.444Z,2.98
2022-11-18T00:59:52.819Z,3.03
2022-11-18T01:03:14.467Z,3.02
2022-11-18T01:06:35.727Z,3.01
2022-11-18T01:09:57.336Z,2.98
2022-11-18T01:13:20.171Z,2.98
2022-11-18T01:16:43.123Z,2.94
2022-11-18T01:20:05.101Z,2.96
2022-11-18T01:23:26.485Z,2.96
2022-11-18T01:26:48.370Z,2.96
2022-11-18T01:30:10.592Z,2.96
2022-11-18T01:33:33.940Z,2.96
2022-11-18T01:36:56.494Z,2.98
2022-11-18T01:40:18.507Z,2.95
2022-11-18T01:43:55.873Z,2.95
2022-11-18T01:47:18.273Z,2.95
2022-11-18T01:50:45.726Z,2.94
2022-11-18T01:54:10.579Z,2.96
2022-11-18T01:57:32.489Z,2.93
2022-11-18T02:00:54.549Z,2.93
2022-11-18T02:04:17.115Z,2.93
2022-11-18T02:07:44.200Z,2.93
2022-11-18T02:11:05.742Z,2.91
2022-11-18T02:14:39.863Z,2.88
2022-11-18T02:18:11.751Z,2.88
2022-11-18T02:21:48.098Z,2.84
2022-11-18T02:25:19.572Z,2.81
2022-11-18T02:28:55.788Z,2.81
2022-11-18T02:32:23.390Z,2.82
2022-11-18T02:35:48.374Z,2.82
2022-11-18T02:39:18.197Z,2.83
2022-11-18T02:42:43.351Z,2.72
2022-11-18T02:46:11.186Z,2.69
2022-11-18T02:49:38.382Z,2.68
2022-11-18T02:53:02.706Z,2.69
2022-11-18T02:56:27.690Z,2.71
2022-11-18T02:59:49.362Z,2.69
2022-11-18T03:03:27.649Z,2.68
2022-11-18T03:06:54.099Z,2.68
2022-11-18T03:10:16.206Z,2.68
2022-11-18T03:13:51.098Z,2.66
2022-11-18T03:17:20.226Z,2.65
2022-11-18T03:20:48.966Z,2.59
2022-11-18T03:24:16.790Z,2.57
2022-11-18T03:27:46.791Z,2.59
2022-11-18T03:31:14.244Z,2.58
2022-11-18T03:34:39.313Z,2.52
2022-11-18T03:38:08.593Z,2.42
2022-11-18T03:41:33.998Z,2.38
2022-11-18T03:45:02.706Z,2.35
2022-11-18T03:48:29.879Z,2.35
2022-11-18T03:51:56.447Z,2.33
2022-11-18T03:55:24.326Z,2.36
2022-11-18T03:58:54.285Z,2.34
2022-11-18T04:02:18.638Z,2.34
2022-11-18T04:05:43.214Z,2.33
2022-11-18T04:09:12.806Z,2.34
2022-11-18T04:12:41.515Z,2.32
2022-11-18T04:16:03.166Z,2.27
2022-11-18T04:19:24.774Z,2.31
2022-11-18T04:22:46.933Z,2.25
2022-11-18T04:26:08.880Z,2.19
2022-11-18T04:29:32.290Z,2.10
2022-11-18T04:32:54.354Z,2.13
2022-11-18T04:36:16.305Z,2.12
2022-11-18T04:39:38.199Z,2.09
2022-11-18T04:43:00.057Z,2.08
2022-11-18T04:46:23.271Z,2.07
2022-11-18T04:49:44.883Z,2.05
2022-11-18T04:53:06.830Z,1.99
2022-11-18T04:56:28.622Z,1.95
2022-11-18T04:59:50.547Z,1.88
2022-11-18T05:03:13.738Z,1.85
2022-11-18T05:06:36.283Z,1.81
2022-11-18T05:09:57.867Z,1.77
2022-11-18T05:13:18.129Z,1.76
2022-11-18T05:16:39.562Z,1.79
2022-11-18T05:20:03.094Z,1.73
2022-11-18T05:23:24.778Z,1.67
2022-11-18T05:26:47.097Z,1.63
2022-11-18T05:30:09.613Z,1.59
2022-11-18T05:33:31.288Z,1.57
2022-11-18T05:36:54.556Z,1.53
2022-11-18T05:40:16.142Z,1.44
2022-11-18T05:43:37.347Z,1.42
2022-11-18T05:47:00.185Z,1.41
2022-11-18T05:50:21.933Z,1.39
2022-11-18T05:53:45.652Z,1.37
2022-11-18T05:57:07.486Z,1.33
2022-11-18T06:00:30.308Z,1.26
2022-11-18T06:03:52.626Z,1.26
2022-11-18T06:07:20.097Z,1.27
2022-11-18T06:10:45.264Z,1.29
2022-11-18T06:14:09.652Z,1.32
2022-11-18T06:17:35.678Z,1.32
2022-11-18T06:21:01.569Z,1.33
2022-11-18T06:24:23.494Z,1.32
2022-11-18T06:27:47.806Z,1.34
2022-11-18T06:31:09.790Z,1.32
2022-11-18T06:34:33.627Z,1.30
2022-11-18T06:37:58.792Z,1.33
2022-11-18T06:41:20.488Z,1.27
2022-11-18T06:44:43.765Z,1.30
2022-11-18T06:48:06.034Z,1.31
2022-11-18T06:51:28.574Z,1.32
2022-11-18T06:54:50.403Z,1.35
2022-11-18T06:58:12.042Z,1.27
2022-11-18T07:01:37.151Z,1.23
2022-11-18T07:04:58.962Z,1.26
2022-11-18T07:08:20.501Z,1.27
2022-11-18T07:11:42.992Z,1.28
2022-11-18T07:15:05.278Z,1.29
2022-11-18T07:18:30.651Z,1.33
2022-11-18T07:21:52.605Z,1.37
2022-11-18T07:25:15.022Z,1.40
2022-11-18T07:28:37.345Z,1.43
2022-11-18T07:31:59.334Z,1.44
2022-11-18T07:35:22.499Z,1.44
2022-11-18T07:38:44.570Z,1.40
2022-11-18T07:42:06.232Z,1.48
2022-11-18T07:45:28.112Z,1.49
2022-11-18T07:48:51.636Z,1.51
2022-11-18T07:52:14.859Z,1.53
2022-11-18T07:55:36.361Z,1.54
2022-11-18T07:58:58.159Z,1.55
2022-11-18T08:02:20.157Z,1.57
2022-11-18T08:05:42.012Z,1.58
2022-11-18T08:09:06.654Z,1.62
2022-11-18T08:12:30.747Z,1.65
2022-11-18T08:15:52.344Z,1.65
2022-11-18T08:19:14.096Z,1.67
2022-11-18T08:22:35.930Z,1.71
2022-11-18T08:26:04.994Z,1.70
2022-11-18T08:29:27.119Z,1.72
2022-11-18T08:32:49.107Z,1.68
2022-11-18T08:36:13.871Z,1.75
2022-11-18T08:39:35.706Z,1.75
2022-11-18T08:42:58.997Z,1.75
2022-11-18T08:46:20.979Z,1.73
2022-11-18T08:49:42.878Z,1.76
2022-11-18T08:53:04.864Z,1.72
2022-11-18T08:56:27.298Z,1.75
2022-11-18T08:59:50.444Z,1.80
2022-11-18T09:03:12.439Z,1.76
2022-11-18T09:06:34.710Z,1.66
2022-11-18T09:09:56.606Z,1.66
2022-11-18T09:13:44.822Z,1.67
2022-11-18T09:17:01.533Z,1.63
2022-11-18T09:20:23.642Z,1.60
2022-11-18T09:23:46.086Z,1.65
2022-11-18T09:27:13.704Z,1.69
2022-11-18T09:30:38.089Z,1.69
2022-11-18T09:34:01.930Z,1.73
2022-11-18T09:37:23.821Z,1.74
2022-11-18T09:40:54.891Z,1.82
2022-11-18T09:44:36.792Z,1.87
2022-11-18T09:48:00.188Z,1.93
2022-11-18T09:51:27.972Z,1.97
2022-11-18T09:54:50.207Z,2.06
2022-11-18T09:58:16.686Z,2.08
2022-11-18T10:01:38.610Z,2.07
2022-11-18T10:05:08.721Z,2.04
2022-11-18T10:08:38.285Z,2.08
2022-11-18T10:12:18.311Z,2.17
2022-11-18T10:15:47.327Z,2.08
2022-11-18T10:19:20.725Z,2.05
2022-11-18T10:22:50.936Z,2.08
2022-11-18T10:26:14.201Z,2.06
2022-11-18T10:29:35.995Z,2.02
2022-11-18T10:32:59.838Z,2.03
2022-11-18T10:36:28.779Z,2.07
2022-11-18T10:39:52.218Z,2.10
2022-11-18T10:43:49.594Z,2.11
2022-11-18T10:47:24.041Z,2.09
2022-11-18T10:50:53.545Z,2.07
2022-11-18T10:54:19.358Z,2.03
2022-11-18T10:57:43.668Z,2.07
2022-11-18T11:01:09.703Z,2.11
2022-11-18T11:04:32.252Z,2.15
2022-11-18T11:08:29.076Z,2.17
2022-11-18T11:11:58.295Z,2.21
2022-11-18T11:15:25.850Z,2.20
2022-11-18T11:18:54.751Z,2.23
2022-11-18T11:22:17.710Z,2.27
2022-11-18T11:29:38.522Z,2.34
2022-11-18T11:33:21.422Z,2.34
2022-11-18T11:36:51.394Z,2.36
2022-11-18T11:40:29.407Z,2.38
2022-11-18T11:44:12.580Z,2.41
2022-11-18T11:47:50.542Z,2.45
2022-11-18T11:51:23.197Z,2.48
2022-11-18T11:54:57.119Z,2.53
2022-11-18T11:58:30.821Z,2.54
2022-11-18T12:02:28.022Z,2.53
2022-11-18T12:05:49.890Z,2.59
2022-11-18T12:09:20.710Z,2.63
2022-11-18T12:12:53.290Z,2.66
2022-11-18T12:16:24.535Z,2.71
2022-11-18T12:19:46.675Z,2.72
2022-11-18T12:23:13.691Z,2.78
2022-11-18T12:26:36.651Z,2.81
2022-11-18T12:30:03.922Z,2.83
2022-11-18T12:33:25.988Z,2.83
2022-11-18T12:36:48.974Z,2.82
2022-11-18T12:40:12.100Z,2.84
2022-11-18T12:44:07.682Z,2.83
2022-11-18T12:48:00.715Z,2.87
2022-11-18T12:51:44.371Z,2.91
2022-11-18T12:55:16.645Z,2.93
2022-11-18T12:58:38.336Z,2.95
2022-11-18T13:02:19.114Z,2.94
2022-11-18T13:05:42.101Z,2.96
2022-11-18T13:09:06.614Z,2.95
2022-11-18T13:12:30.786Z,2.97
2022-11-18T13:16:10.288Z,2.99
2022-11-18T13:19:31.956Z,3.00
2022-11-18T13:23:15.053Z,3.00
2022-11-18T13:26:36.827Z,3.02
2022-11-18T13:30:05.203Z,3.01
2022-11-18T13:33:27.162Z,3.00
2022-11-18T13:36:51.246Z,3.00
2022-11-18T13:40:23.638Z,3.00
2022-11-18T13:43:46.440Z,3.00
2022-11-18T13:47:17.876Z,2.99
2022-11-18T13:50:43.771Z,2.98
2022-11-18T13:54:05.750Z,2.94
2022-11-18T13:57:30.297Z,2.89
2022-11-18T14:00:57.739Z,2.90
2022-11-18T14:04:22.325Z,2.87
2022-11-18T14:07:44.075Z,2.86
2022-11-18T14:11:07.643Z,2.85
2022-11-18T14:14:33.330Z,2.84
2022-11-18T14:17:56.971Z,2.81
2022-11-18T14:21:28.374Z,2.77
2022-11-18T14:24:57.704Z,2.74
2022-11-18T14:28:24.227Z,2.73
2022-11-18T14:32:14.182Z,2.71
2022-11-18T14:35:35.860Z,2.70
2022-11-18T14:39:19.796Z,2.67
2022-11-18T14:42:39.679Z,2.62
2022-11-18T14:46:03.597Z,2.55
2022-11-18T14:49:27.722Z,2.51
2022-11-18T14:52:49.568Z,2.43
2022-11-18T14:56:16.106Z,2.35
2022-11-18T14:59:38.096Z,2.27
2022-11-18T15:03:00.121Z,2.17
2022-11-18T15:06:24.699Z,2.08
2022-11-18T15:09:46.735Z,1.99
2022-11-18T15:13:08.343Z,1.90
2022-11-18T15:16:32.673Z,1.77
2022-11-18T15:19:54.482Z,1.66
2022-11-18T15:23:17.676Z,1.55
2022-11-18T15:26:41.204Z,1.43
2022-11-18T15:30:03.364Z,1.34
2022-11-18T15:33:25.207Z,1.23
2022-11-18T15:36:47.674Z,1.12
2022-11-18T15:40:11.151Z,1.01
2022-11-18T15:43:32.972Z,0.89
2022-11-18T15:46:55.454Z,0.78
2022-11-18T15:50:17.878Z,0.72
2022-11-18T15:53:39.479Z,0.65
2022-11-18T15:57:02.566Z,0.61
2022-11-18T16:00:24.481Z,0.57
2022-11-18T16:03:46.087Z,0.50
2022-11-18T16:07:07.927Z,0.41
2022-11-18T16:10:46.757Z,0.35
2022-11-18T16:14:12.350Z,0.27
2022-11-18T16:17:34.231Z,0.23
2022-11-18T16:20:58.991Z,0.15
2022-11-18T16:24:23.531Z,0.07
2022-11-18T16:27:45.181Z,0.02
2022-11-18T16:31:26.530Z,-0.04
2022-11-18T16:34:48.199Z,-0.04
2022-11-18T16:38:10.143Z,-0.05
2022-11-18T16:41:32.742Z,-0.10
2022-11-18T16:44:54.834Z,-0.13
2022-11-18T16:48:17.789Z,-0.18
2022-11-18T16:51:42.544Z,-0.20
2022-11-18T16:55:05.175Z,-0.21
2022-11-18T16:58:26.934Z,-0.28
2022-11-18T17:01:49.892Z,-0.34
2022-11-18T17:05:13.431Z,-0.39
2022-11-18T17:08:35.802Z,-0.46
2022-11-18T17:11:58.578Z,-0.50
2022-11-18T17:15:20.494Z,-0.54
2022-11-18T17:18:42.975Z,-0.56
2022-11-18T17:22:06.422Z,-0.62
2022-11-18T17:25:28.344Z,-0.63
2022-11-18T17:28:50.186Z,-0.64
2022-11-18T17:32:11.690Z,-0.68
2022-11-18T17:35:33.643Z,-0.70
2022-11-18T17:38:59.538Z,-0.76
2022-11-18T17:42:25.640Z,-0.76
2022-11-18T17:45:50.786Z,-0.81
2022-11-18T17:49:14.585Z,-0.82
2022-11-18T17:52:36.726Z,-0.83
2022-11-18T17:56:03.865Z,-0.93
2022-11-18T17:59:26.055Z,-0.94
2022-11-18T18:02:47.987Z,-0.97
2022-11-18T18:06:12.003Z,-0.97
2022-11-18T18:09:33.982Z,-0.99
2022-11-18T18:13:14.393Z,-1.05
2022-11-18T18:16:36.260Z,-1.17
2022-11-18T18:19:57.874Z,-1.18
2022-11-18T18:23:19.730Z,-1.15
2022-11-18T18:26:41.749Z,-1.17
2022-11-18T18:30:05.607Z,-1.17
2022-11-18T18:33:27.666Z,-1.18
2022-11-18T18:36:49.724Z,-1.24
2022-11-18T18:40:12.367Z,-1.26
2022-11-18T18:43:34.388Z,-1.28
2022-11-18T18:46:57.552Z,-1.29
2022-11-18T18:50:21.061Z,-1.31
2022-11-18T18:53:45.815Z,-1.32
2022-11-18T18:57:08.782Z,-1.37
2022-11-18T19:00:30.803Z,-1.42
2022-11-18T19:03:57.420Z,-1.46
2022-11-18T19:07:20.126Z,-1.49
2022-11-18T19:10:41.728Z,-1.53
2022-11-18T19:14:06.724Z,-1.55
2022-11-18T19:17:28.563Z,-1.55
2022-11-18T19:20:51.935Z,-1.61
2022-11-18T19:24:28.659Z,-1.69
2022-11-18T19:27:55.542Z,-1.72
2022-11-18T19:31:18.666Z,-1.76
2022-11-18T19:34:40.410Z,-1.79
2022-11-18T19:38:03.833Z,-1.80
2022-11-18T19:41:25.851Z,-1.83
2022-11-18T19:44:47.545Z,-1.91
2022-11-18T19:48:09.738Z,-2.00
2022-11-18T19:51:31.559Z,-2.03
2022-11-18T19:54:54.901Z,-2.09
2022-11-18T19:58:16.326Z,-2.10
2022-11-18T20:01:38.045Z,-2.11
2022-11-18T20:05:17.127Z,-2.15
2022-11-18T20:08:40.416Z,-2.20
2022-11-18T20:12:03.575Z,-2.23
2022-11-18T20:15:25.148Z,-2.24
2022-11-18T20:18:48.813Z,-2.25
2022-11-18T20:22:10.355Z,-2.25
2022-11-18T20:25:32.297Z,-2.25
2022-11-18T20:28:57.721Z,-2.25
2022-11-18T20:32:19.782Z,-2.24
2022-11-18T20:35:41.638Z,-2.22
2022-11-18T20:39:05.819Z,-2.20
2022-11-18T20:42:44.623Z,-2.25
2022-11-18T20:46:08.615Z,-2.31
2022-11-18T20:49:30.658Z,-2.35
2022-11-18T20:52:52.563Z,-2.38
2022-11-18T20:56:16.648Z,-2.44
2022-11-18T20:59:39.342Z,-2.53
2022-11-18T21:03:02.417Z,-2.62
2022-11-18T21:06:27.419Z,-2.69
2022-11-18T21:09:50.411Z,-2.73
2022-11-18T21:13:29.543Z,-2.73
2022-11-18T21:16:51.712Z,-2.73
2022-11-18T21:20:28.580Z,-2.74
2022-11-18T21:23:50.441Z,-2.72
2022-11-18T21:27:12.868Z,-2.71
2022-11-18T21:30:34.910Z,-2.72
2022-11-18T21:33:57.412Z,-2.73
2022-11-18T21:37:20.485Z,-2.80
2022-11-18T21:40:41.811Z,-2.81
2022-11-18T21:44:06.193Z,-2.83
2022-11-18T21:47:28.225Z,-2.81
2022-11-18T21:50:49.646Z,-2.84
2022-11-18T21:54:15.866Z,-2.87
2022-11-18T21:57:38.009Z,-2.87
2022-11-18T22:01:07.733Z,-2.89
2022-11-18T22:04:47.030Z,-2.92
2022-11-18T22:08:10.948Z,-2.92
2022-11-18T22:11:35.623Z,-2.94
2022-11-18T22:14:57.560Z,-2.97
2022-11-18T22:18:19.491Z,-2.99
2022-11-18T22:21:41.581Z,-3.00
2022-11-18T22:25:03.547Z,-3.04
2022-11-18T22:28:27.234Z,-3.08
2022-11-18T22:31:49.127Z,-3.12
2022-11-18T22:35:11.185Z,-3.14
2022-11-18T22:38:34.148Z,-3.15
2022-11-18T22:42:13.538Z,-3.18
2022-11-18T22:45:36.713Z,-3.14
2022-11-18T22:48:59.287Z,-3.13
2022-11-18T22:52:20.863Z,-3.15
2022-11-18T22:55:42.697Z,-3.14
2022-11-18T22:59:05.207Z,-3.16
2022-11-18T23:02:28.594Z,-3.16
2022-11-18T23:05:50.258Z,-3.15
2022-11-18T23:09:12.392Z,-3.14
2022-11-18T23:12:51.770Z,-3.20
2022-11-18T23:16:13.556Z,-3.23
2022-11-18T23:19:41.895Z,-3.24
2022-11-18T23:23:03.846Z,-3.28
2022-11-18T23:26:26.378Z,-3.30
2022-11-18T23:29:47.918Z,-3.32
2022-11-18T23:33:09.949Z,-3.35
2022-11-18T23:36:33.373Z,-3.38
2022-11-18T23:39:55.587Z,-3.40
2022-11-18T23:43:17.773Z,-3.42
2022-11-18T23:46:39.643Z,-3.45
2022-11-18T23:50:01.277Z,-3.45
2022-11-18T23:53:25.526Z,-3.46
2022-11-18T23:56:47.004Z,-3.49
